sensor_id;sensor_type;location;lat;lon;timestamp;P1;durP1;ratioP1;P2;durP2;ratioP2
41289;SDS011;36117;46.680;11.154;2022-07-29T00:00:06;5.40;;;3.00;;
41289;SDS011;36117;46.680;11.154;2022-07-29T00:02:33;5.20;;;2.47;;
41289;SDS011;36117;46.680;11.154;2022-07-29T00:04:59;8.18;;;3.00;;
41289;SDS011;36117;46.680;11.154;2022-07-29T00:07:25;5.75;;;2.47;;
41289;SDS011;36117;46.680;11.154;2022-07-29T00:09:51;8.15;;;2.70;;
41289;SDS011;36117;46.680;11.154;2022-07-29T00:12:18;7.13;;;2.85;;
41289;SDS011;36117;46.680;11.154;2022-07-29T00:14:45;6.32;;;2.72;;
41289;SDS011;36117;46.680;11.154;2022-07-29T00:17:11;6.70;;;3.10;;
41289;SDS011;36117;46.680;11.154;2022-07-29T00:19:37;5.35;;;3.00;;
41289;SDS011;36117;46.680;11.154;2022-07-29T00:22:02;5.80;;;2.75;;
41289;SDS011;36117;46.680;11.154;2022-07-29T00:24:28;3.65;;;2.50;;
41289;SDS011;36117;46.680;11.154;2022-07-29T00:26:54;5.25;;;2.75;;
41289;SDS011;36117;46.680;11.154;2022-07-29T00:29:20;4.53;;;2.85;;
41289;SDS011;36117;46.680;11.154;2022-07-29T00:31:46;8.90;;;3.50;;
41289;SDS011;36117;46.680;11.154;2022-07-29T00:34:11;12.90;;;3.53;;
41289;SDS011;36117;46.680;11.154;2022-07-29T00:36:56;7.35;;;3.38;;
41289;SDS011;36117;46.680;11.154;2022-07-29T00:39:22;4.50;;;2.35;;
41289;SDS011;36117;46.680;11.154;2022-07-29T00:41:48;9.20;;;3.92;;
41289;SDS011;36117;46.680;11.154;2022-07-29T00:44:14;6.35;;;2.88;;
41289;SDS011;36117;46.680;11.154;2022-07-29T00:46:40;5.90;;;2.85;;
41289;SDS011;36117;46.680;11.154;2022-07-29T00:49:06;4.45;;;2.70;;
41289;SDS011;36117;46.680;11.154;2022-07-29T00:51:34;3.80;;;2.55;;
41289;SDS011;36117;46.680;11.154;2022-07-29T00:54:03;6.93;;;2.90;;
41289;SDS011;36117;46.680;11.154;2022-07-29T00:56:31;7.75;;;2.80;;
41289;SDS011;36117;46.680;11.154;2022-07-29T00:58:57;7.07;;;2.70;;
41289;SDS011;36117;46.680;11.154;2022-07-29T01:01:24;9.15;;;3.70;;
41289;SDS011;36117;46.680;11.154;2022-07-29T01:03:50;6.43;;;2.90;;
41289;SDS011;36117;46.680;11.154;2022-07-29T01:06:17;10.25;;;3.00;;
41289;SDS011;36117;46.680;11.154;2022-07-29T01:08:44;7.20;;;3.25;;
41289;SDS011;36117;46.680;11.154;2022-07-29T01:11:12;6.82;;;2.90;;
41289;SDS011;36117;46.680;11.154;2022-07-29T01:13:39;5.72;;;3.00;;
41289;SDS011;36117;46.680;11.154;2022-07-29T01:16:13;8.88;;;2.80;;
41289;SDS011;36117;46.680;11.154;2022-07-29T01:18:49;7.10;;;2.88;;
41289;SDS011;36117;46.680;11.154;2022-07-29T01:21:43;6.32;;;3.00;;
41289;SDS011;36117;46.680;11.154;2022-07-29T01:27:26;4.95;;;3.05;;
41289;SDS011;36117;46.680;11.154;2022-07-29T01:30:27;5.50;;;2.95;;
41289;SDS011;36117;46.680;11.154;2022-07-29T01:32:59;4.63;;;2.88;;
41289;SDS011;36117;46.680;11.154;2022-07-29T01:35:38;6.57;;;2.60;;
41289;SDS011;36117;46.680;11.154;2022-07-29T01:40:51;10.30;;;3.17;;
41289;SDS011;36117;46.680;11.154;2022-07-29T01:43:26;3.60;;;2.50;;
41289;SDS011;36117;46.680;11.154;2022-07-29T01:45:57;6.85;;;3.38;;
41289;SDS011;36117;46.680;11.154;2022-07-29T01:51:58;8.02;;;3.20;;
41289;SDS011;36117;46.680;11.154;2022-07-29T01:57:08;8.20;;;3.13;;
41289;SDS011;36117;46.680;11.154;2022-07-29T01:59:36;6.93;;;3.58;;
41289;SDS011;36117;46.680;11.154;2022-07-29T02:02:03;8.77;;;3.47;;
41289;SDS011;36117;46.680;11.154;2022-07-29T02:04:33;5.28;;;3.38;;
41289;SDS011;36117;46.680;11.154;2022-07-29T02:07:03;5.82;;;3.42;;
41289;SDS011;36117;46.680;11.154;2022-07-29T02:09:32;8.95;;;4.05;;
41289;SDS011;36117;46.680;11.154;2022-07-29T02:12:00;6.35;;;3.33;;
41289;SDS011;36117;46.680;11.154;2022-07-29T02:14:29;6.50;;;2.92;;
41289;SDS011;36117;46.680;11.154;2022-07-29T02:16:59;6.17;;;3.20;;
41289;SDS011;36117;46.680;11.154;2022-07-29T02:19:27;6.78;;;3.50;;
41289;SDS011;36117;46.680;11.154;2022-07-29T02:21:54;4.97;;;2.75;;
41289;SDS011;36117;46.680;11.154;2022-07-29T02:24:23;8.93;;;2.92;;
41289;SDS011;36117;46.680;11.154;2022-07-29T02:26:51;4.20;;;3.00;;
41289;SDS011;36117;46.680;11.154;2022-07-29T02:29:23;9.20;;;3.08;;
41289;SDS011;36117;46.680;11.154;2022-07-29T02:34:18;4.53;;;3.38;;
41289;SDS011;36117;46.680;11.154;2022-07-29T02:36:46;7.32;;;3.50;;
41289;SDS011;36117;46.680;11.154;2022-07-29T02:39:13;5.07;;;3.13;;
41289;SDS011;36117;46.680;11.154;2022-07-29T02:41:43;5.70;;;3.00;;
41289;SDS011;36117;46.680;11.154;2022-07-29T02:46:49;7.15;;;3.70;;
41289;SDS011;36117;46.680;11.154;2022-07-29T02:49:24;9.30;;;3.33;;
41289;SDS011;36117;46.680;11.154;2022-07-29T02:55:15;5.40;;;2.95;;
41289;SDS011;36117;46.680;11.154;2022-07-29T02:58:13;5.15;;;3.13;;
41289;SDS011;36117;46.680;11.154;2022-07-29T03:00:53;6.55;;;3.75;;
41289;SDS011;36117;46.680;11.154;2022-07-29T03:03:22;6.15;;;3.33;;
41289;SDS011;36117;46.680;11.154;2022-07-29T03:05:55;6.03;;;3.17;;
41289;SDS011;36117;46.680;11.154;2022-07-29T03:08:23;6.57;;;3.13;;
41289;SDS011;36117;46.680;11.154;2022-07-29T03:10:49;4.85;;;2.90;;
41289;SDS011;36117;46.680;11.154;2022-07-29T03:13:18;3.60;;;2.80;;
41289;SDS011;36117;46.680;11.154;2022-07-29T03:15:44;4.70;;;3.13;;
41289;SDS011;36117;46.680;11.154;2022-07-29T03:18:12;7.00;;;3.53;;
41289;SDS011;36117;46.680;11.154;2022-07-29T03:20:39;6.90;;;3.95;;
41289;SDS011;36117;46.680;11.154;2022-07-29T03:23:05;4.57;;;2.97;;
41289;SDS011;36117;46.680;11.154;2022-07-29T03:25:33;6.45;;;3.42;;
41289;SDS011;36117;46.680;11.154;2022-07-29T03:27:59;7.20;;;3.08;;
41289;SDS011;36117;46.680;11.154;2022-07-29T03:30:25;8.07;;;3.42;;
41289;SDS011;36117;46.680;11.154;2022-07-29T03:32:53;8.70;;;3.17;;
41289;SDS011;36117;46.680;11.154;2022-07-29T03:35:19;4.90;;;3.30;;
41289;SDS011;36117;46.680;11.154;2022-07-29T03:37:46;7.25;;;3.28;;
41289;SDS011;36117;46.680;11.154;2022-07-29T03:40:13;5.50;;;3.15;;
41289;SDS011;36117;46.680;11.154;2022-07-29T03:42:44;3.90;;;2.33;;
41289;SDS011;36117;46.680;11.154;2022-07-29T03:45:13;4.63;;;2.67;;
41289;SDS011;36117;46.680;11.154;2022-07-29T03:47:43;6.15;;;3.00;;
41289;SDS011;36117;46.680;11.154;2022-07-29T03:50:14;5.95;;;2.95;;
41289;SDS011;36117;46.680;11.154;2022-07-29T03:52:41;4.82;;;2.90;;
41289;SDS011;36117;46.680;11.154;2022-07-29T03:55:07;4.53;;;2.40;;
41289;SDS011;36117;46.680;11.154;2022-07-29T03:57:34;3.95;;;2.38;;
41289;SDS011;36117;46.680;11.154;2022-07-29T04:00:01;8.23;;;2.65;;
41289;SDS011;36117;46.680;11.154;2022-07-29T04:02:29;2.42;;;2.20;;
41289;SDS011;36117;46.680;11.154;2022-07-29T04:04:56;6.93;;;2.38;;
41289;SDS011;36117;46.680;11.154;2022-07-29T04:07:22;4.88;;;2.47;;
41289;SDS011;36117;46.680;11.154;2022-07-29T04:09:48;5.55;;;2.78;;
41289;SDS011;36117;46.680;11.154;2022-07-29T04:12:14;19.75;;;4.72;;
41289;SDS011;36117;46.680;11.154;2022-07-29T04:14:40;9.70;;;3.05;;
41289;SDS011;36117;46.680;11.154;2022-07-29T04:17:06;3.30;;;2.53;;
41289;SDS011;36117;46.680;11.154;2022-07-29T04:19:32;3.88;;;2.60;;
41289;SDS011;36117;46.680;11.154;2022-07-29T04:21:58;6.40;;;2.60;;
41289;SDS011;36117;46.680;11.154;2022-07-29T04:24:25;3.70;;;2.80;;
41289;SDS011;36117;46.680;11.154;2022-07-29T04:26:51;4.90;;;2.33;;
41289;SDS011;36117;46.680;11.154;2022-07-29T04:29:17;4.57;;;2.58;;
41289;SDS011;36117;46.680;11.154;2022-07-29T04:31:43;7.18;;;2.30;;
41289;SDS011;36117;46.680;11.154;2022-07-29T04:34:09;5.57;;;3.15;;
41289;SDS011;36117;46.680;11.154;2022-07-29T04:36:36;3.42;;;2.63;;
41289;SDS011;36117;46.680;11.154;2022-07-29T04:39:02;7.00;;;2.58;;
41289;SDS011;36117;46.680;11.154;2022-07-29T04:41:29;6.25;;;2.80;;
41289;SDS011;36117;46.680;11.154;2022-07-29T04:43:54;6.00;;;3.15;;
41289;SDS011;36117;46.680;11.154;2022-07-29T04:46:20;7.22;;;3.10;;
41289;SDS011;36117;46.680;11.154;2022-07-29T04:48:46;7.30;;;2.40;;
41289;SDS011;36117;46.680;11.154;2022-07-29T04:51:12;6.32;;;2.97;;
41289;SDS011;36117;46.680;11.154;2022-07-29T04:53:39;5.35;;;2.70;;
41289;SDS011;36117;46.680;11.154;2022-07-29T04:56:05;5.45;;;2.40;;
41289;SDS011;36117;46.680;11.154;2022-07-29T04:58:30;4.63;;;2.45;;
41289;SDS011;36117;46.680;11.154;2022-07-29T05:00:59;7.45;;;2.70;;
41289;SDS011;36117;46.680;11.154;2022-07-29T05:03:24;3.60;;;2.45;;
41289;SDS011;36117;46.680;11.154;2022-07-29T05:05:50;2.85;;;2.15;;
41289;SDS011;36117;46.680;11.154;2022-07-29T05:08:16;3.75;;;2.28;;
41289;SDS011;36117;46.680;11.154;2022-07-29T05:10:42;3.35;;;2.10;;
41289;SDS011;36117;46.680;11.154;2022-07-29T05:13:08;6.13;;;2.97;;
41289;SDS011;36117;46.680;11.154;2022-07-29T05:15:34;5.65;;;2.15;;
41289;SDS011;36117;46.680;11.154;2022-07-29T05:18:00;5.30;;;2.70;;
41289;SDS011;36117;46.680;11.154;2022-07-29T05:20:27;5.10;;;2.22;;
41289;SDS011;36117;46.680;11.154;2022-07-29T05:22:57;3.55;;;2.33;;
41289;SDS011;36117;46.680;11.154;2022-07-29T05:25:24;8.60;;;3.40;;
41289;SDS011;36117;46.680;11.154;2022-07-29T05:27:51;4.35;;;2.28;;
41289;SDS011;36117;46.680;11.154;2022-07-29T05:30:17;5.65;;;2.90;;
41289;SDS011;36117;46.680;11.154;2022-07-29T05:32:43;5.70;;;2.80;;
41289;SDS011;36117;46.680;11.154;2022-07-29T05:35:09;3.58;;;2.80;;
41289;SDS011;36117;46.680;11.154;2022-07-29T05:37:35;4.97;;;2.80;;
41289;SDS011;36117;46.680;11.154;2022-07-29T05:40:01;4.22;;;2.00;;
41289;SDS011;36117;46.680;11.154;2022-07-29T05:42:28;10.85;;;2.47;;
41289;SDS011;36117;46.680;11.154;2022-07-29T05:44:54;6.57;;;3.00;;
41289;SDS011;36117;46.680;11.154;2022-07-29T05:47:20;2.97;;;2.30;;
41289;SDS011;36117;46.680;11.154;2022-07-29T05:49:46;4.80;;;2.45;;
41289;SDS011;36117;46.680;11.154;2022-07-29T05:52:12;7.30;;;2.50;;
41289;SDS011;36117;46.680;11.154;2022-07-29T05:54:38;3.53;;;2.45;;
41289;SDS011;36117;46.680;11.154;2022-07-29T05:57:04;3.42;;;2.17;;
41289;SDS011;36117;46.680;11.154;2022-07-29T05:59:31;5.15;;;1.95;;
41289;SDS011;36117;46.680;11.154;2022-07-29T06:02:00;3.65;;;2.28;;
41289;SDS011;36117;46.680;11.154;2022-07-29T06:04:26;4.80;;;2.38;;
41289;SDS011;36117;46.680;11.154;2022-07-29T06:06:52;3.38;;;2.10;;
41289;SDS011;36117;46.680;11.154;2022-07-29T06:09:18;3.55;;;2.17;;
41289;SDS011;36117;46.680;11.154;2022-07-29T06:11:44;7.40;;;2.13;;
41289;SDS011;36117;46.680;11.154;2022-07-29T06:14:10;4.78;;;1.77;;
41289;SDS011;36117;46.680;11.154;2022-07-29T06:16:36;6.25;;;2.20;;
41289;SDS011;36117;46.680;11.154;2022-07-29T06:19:02;5.57;;;2.33;;
41289;SDS011;36117;46.680;11.154;2022-07-29T06:21:29;5.45;;;2.33;;
41289;SDS011;36117;46.680;11.154;2022-07-29T06:23:55;3.97;;;1.95;;
41289;SDS011;36117;46.680;11.154;2022-07-29T06:26:21;7.80;;;2.60;;
41289;SDS011;36117;46.680;11.154;2022-07-29T06:28:46;4.90;;;2.08;;
41289;SDS011;36117;46.680;11.154;2022-07-29T06:31:12;4.57;;;2.22;;
41289;SDS011;36117;46.680;11.154;2022-07-29T06:33:38;3.88;;;2.03;;
41289;SDS011;36117;46.680;11.154;2022-07-29T06:36:04;4.68;;;2.20;;
41289;SDS011;36117;46.680;11.154;2022-07-29T06:38:32;4.47;;;2.20;;
41289;SDS011;36117;46.680;11.154;2022-07-29T06:41:00;5.25;;;1.55;;
41289;SDS011;36117;46.680;11.154;2022-07-29T06:43:36;1.60;;;1.40;;
41289;SDS011;36117;46.680;11.154;2022-07-29T06:46:09;3.30;;;1.55;;
41289;SDS011;36117;46.680;11.154;2022-07-29T06:48:39;4.22;;;2.10;;
41289;SDS011;36117;46.680;11.154;2022-07-29T06:51:07;2.72;;;1.63;;
41289;SDS011;36117;46.680;11.154;2022-07-29T06:53:34;1.98;;;1.40;;
41289;SDS011;36117;46.680;11.154;2022-07-29T06:56:01;10.52;;;1.40;;
41289;SDS011;36117;46.680;11.154;2022-07-29T06:58:29;3.72;;;1.38;;
41289;SDS011;36117;46.680;11.154;2022-07-29T07:00:58;4.63;;;1.48;;
41289;SDS011;36117;46.680;11.154;2022-07-29T07:03:27;4.72;;;1.27;;
41289;SDS011;36117;46.680;11.154;2022-07-29T07:05:53;2.40;;;1.67;;
41289;SDS011;36117;46.680;11.154;2022-07-29T07:08:21;5.38;;;1.70;;
41289;SDS011;36117;46.680;11.154;2022-07-29T07:10:48;1.73;;;1.40;;
41289;SDS011;36117;46.680;11.154;2022-07-29T07:13:15;3.65;;;1.38;;
41289;SDS011;36117;46.680;11.154;2022-07-29T07:15:42;2.50;;;1.73;;
41289;SDS011;36117;46.680;11.154;2022-07-29T07:18:12;3.35;;;1.90;;
41289;SDS011;36117;46.680;11.154;2022-07-29T07:20:39;6.00;;;1.73;;
41289;SDS011;36117;46.680;11.154;2022-07-29T07:23:05;1.85;;;1.58;;
41289;SDS011;36117;46.680;11.154;2022-07-29T07:25:31;2.78;;;1.23;;
41289;SDS011;36117;46.680;11.154;2022-07-29T07:27:59;10.38;;;1.80;;
41289;SDS011;36117;46.680;11.154;2022-07-29T07:30:25;3.40;;;1.33;;
41289;SDS011;36117;46.680;11.154;2022-07-29T07:32:52;3.17;;;1.52;;
41289;SDS011;36117;46.680;11.154;2022-07-29T07:35:18;1.63;;;1.50;;
41289;SDS011;36117;46.680;11.154;2022-07-29T07:37:44;3.92;;;2.08;;
41289;SDS011;36117;46.680;11.154;2022-07-29T07:40:11;5.05;;;1.73;;
41289;SDS011;36117;46.680;11.154;2022-07-29T07:42:38;2.65;;;1.27;;
41289;SDS011;36117;46.680;11.154;2022-07-29T07:45:05;10.48;;;2.67;;
41289;SDS011;36117;46.680;11.154;2022-07-29T07:47:34;2.03;;;1.75;;
41289;SDS011;36117;46.680;11.154;2022-07-29T07:50:01;1.80;;;1.40;;
41289;SDS011;36117;46.680;11.154;2022-07-29T07:52:27;3.08;;;1.60;;
41289;SDS011;36117;46.680;11.154;2022-07-29T07:54:53;4.13;;;2.10;;
41289;SDS011;36117;46.680;11.154;2022-07-29T07:57:19;2.72;;;1.95;;
41289;SDS011;36117;46.680;11.154;2022-07-29T07:59:45;4.57;;;1.73;;
41289;SDS011;36117;46.680;11.154;2022-07-29T08:02:11;6.38;;;1.63;;
41289;SDS011;36117;46.680;11.154;2022-07-29T08:04:37;2.05;;;1.40;;
41289;SDS011;36117;46.680;11.154;2022-07-29T08:07:05;2.00;;;1.45;;
41289;SDS011;36117;46.680;11.154;2022-07-29T08:09:32;2.25;;;1.30;;
41289;SDS011;36117;46.680;11.154;2022-07-29T08:11:59;3.63;;;1.55;;
41289;SDS011;36117;46.680;11.154;2022-07-29T08:14:28;2.88;;;2.13;;
41289;SDS011;36117;46.680;11.154;2022-07-29T08:17:06;8.88;;;1.50;;
41289;SDS011;36117;46.680;11.154;2022-07-29T08:19:35;2.97;;;1.70;;
41289;SDS011;36117;46.680;11.154;2022-07-29T08:22:02;4.72;;;2.00;;
41289;SDS011;36117;46.680;11.154;2022-07-29T08:24:28;4.78;;;1.80;;
41289;SDS011;36117;46.680;11.154;2022-07-29T08:27:11;2.08;;;1.48;;
41289;SDS011;36117;46.680;11.154;2022-07-29T08:29:38;5.57;;;1.90;;
41289;SDS011;36117;46.680;11.154;2022-07-29T08:32:04;2.58;;;1.40;;
41289;SDS011;36117;46.680;11.154;2022-07-29T08:34:31;1.35;;;1.13;;
41289;SDS011;36117;46.680;11.154;2022-07-29T08:36:57;2.05;;;1.35;;
41289;SDS011;36117;46.680;11.154;2022-07-29T08:39:23;2.05;;;1.40;;
41289;SDS011;36117;46.680;11.154;2022-07-29T08:41:50;3.53;;;1.50;;
41289;SDS011;36117;46.680;11.154;2022-07-29T08:44:17;2.95;;;1.48;;
41289;SDS011;36117;46.680;11.154;2022-07-29T08:46:44;1.67;;;1.40;;
41289;SDS011;36117;46.680;11.154;2022-07-29T08:49:10;2.80;;;1.73;;
41289;SDS011;36117;46.680;11.154;2022-07-29T08:51:36;2.65;;;1.80;;
41289;SDS011;36117;46.680;11.154;2022-07-29T08:54:05;4.55;;;1.60;;
41289;SDS011;36117;46.680;11.154;2022-07-29T08:56:31;1.92;;;1.73;;
41289;SDS011;36117;46.680;11.154;2022-07-29T08:58:58;3.92;;;1.48;;
41289;SDS011;36117;46.680;11.154;2022-07-29T09:01:27;5.07;;;1.65;;
41289;SDS011;36117;46.680;11.154;2022-07-29T09:03:56;6.85;;;1.85;;
41289;SDS011;36117;46.680;11.154;2022-07-29T09:06:24;13.45;;;1.73;;
41289;SDS011;36117;46.680;11.154;2022-07-29T09:08:53;3.72;;;1.40;;
41289;SDS011;36117;46.680;11.154;2022-07-29T09:11:23;2.50;;;1.55;;
41289;SDS011;36117;46.680;11.154;2022-07-29T09:13:49;2.60;;;1.38;;
41289;SDS011;36117;46.680;11.154;2022-07-29T09:16:15;1.65;;;1.30;;
41289;SDS011;36117;46.680;11.154;2022-07-29T09:18:42;1.77;;;1.40;;
41289;SDS011;36117;46.680;11.154;2022-07-29T09:21:10;5.45;;;1.48;;
41289;SDS011;36117;46.680;11.154;2022-07-29T09:24:08;2.78;;;1.70;;
41289;SDS011;36117;46.680;11.154;2022-07-29T09:26:36;6.63;;;3.95;;
41289;SDS011;36117;46.680;11.154;2022-07-29T09:29:11;3.03;;;1.30;;
41289;SDS011;36117;46.680;11.154;2022-07-29T09:31:41;2.58;;;1.50;;
41289;SDS011;36117;46.680;11.154;2022-07-29T09:34:08;2.33;;;1.40;;
41289;SDS011;36117;46.680;11.154;2022-07-29T09:36:43;3.25;;;1.30;;
41289;SDS011;36117;46.680;11.154;2022-07-29T09:39:11;3.60;;;1.30;;
41289;SDS011;36117;46.680;11.154;2022-07-29T09:41:44;2.10;;;1.40;;
41289;SDS011;36117;46.680;11.154;2022-07-29T09:44:17;4.07;;;1.63;;
41289;SDS011;36117;46.680;11.154;2022-07-29T09:47:03;1.27;;;1.17;;
41289;SDS011;36117;46.680;11.154;2022-07-29T09:49:33;4.03;;;1.67;;
41289;SDS011;36117;46.680;11.154;2022-07-29T09:52:00;5.15;;;1.40;;
41289;SDS011;36117;46.680;11.154;2022-07-29T09:54:30;4.68;;;1.30;;
41289;SDS011;36117;46.680;11.154;2022-07-29T09:57:02;7.13;;;2.88;;
41289;SDS011;36117;46.680;11.154;2022-07-29T09:59:32;1.90;;;1.60;;
41289;SDS011;36117;46.680;11.154;2022-07-29T10:01:59;3.08;;;1.90;;
41289;SDS011;36117;46.680;11.154;2022-07-29T10:04:38;4.38;;;1.30;;
41289;SDS011;36117;46.680;11.154;2022-07-29T10:07:05;2.22;;;1.30;;
41289;SDS011;36117;46.680;11.154;2022-07-29T10:09:33;2.67;;;1.30;;
41289;SDS011;36117;46.680;11.154;2022-07-29T10:12:03;2.40;;;1.85;;
41289;SDS011;36117;46.680;11.154;2022-07-29T10:14:33;4.13;;;1.50;;
41289;SDS011;36117;46.680;11.154;2022-07-29T10:17:00;1.10;;;1.00;;
41289;SDS011;36117;46.680;11.154;2022-07-29T10:19:30;2.30;;;1.02;;
41289;SDS011;36117;46.680;11.154;2022-07-29T10:21:58;4.13;;;1.52;;
41289;SDS011;36117;46.680;11.154;2022-07-29T10:24:28;1.13;;;0.82;;
41289;SDS011;36117;46.680;11.154;2022-07-29T10:26:56;5.10;;;1.00;;
41289;SDS011;36117;46.680;11.154;2022-07-29T10:29:23;4.28;;;1.40;;
41289;SDS011;36117;46.680;11.154;2022-07-29T10:32:00;4.68;;;1.50;;
41289;SDS011;36117;46.680;11.154;2022-07-29T10:40:17;1.25;;;1.10;;
41289;SDS011;36117;46.680;11.154;2022-07-29T10:43:22;1.67;;;1.13;;
41289;SDS011;36117;46.680;11.154;2022-07-29T10:45:57;1.23;;;0.95;;
41289;SDS011;36117;46.680;11.154;2022-07-29T10:48:25;1.38;;;1.08;;
41289;SDS011;36117;46.680;11.154;2022-07-29T10:50:51;0.90;;;0.80;;
41289;SDS011;36117;46.680;11.154;2022-07-29T10:53:23;0.65;;;0.63;;
41289;SDS011;36117;46.680;11.154;2022-07-29T10:56:22;1.67;;;0.80;;
41289;SDS011;36117;46.680;11.154;2022-07-29T10:59:15;1.65;;;1.02;;
41289;SDS011;36117;46.680;11.154;2022-07-29T11:01:43;1.63;;;1.23;;
41289;SDS011;36117;46.680;11.154;2022-07-29T11:04:09;0.88;;;0.80;;
41289;SDS011;36117;46.680;11.154;2022-07-29T11:09:27;1.48;;;1.20;;
41289;SDS011;36117;46.680;11.154;2022-07-29T11:11:55;4.70;;;1.73;;
41289;SDS011;36117;46.680;11.154;2022-07-29T11:17:24;4.05;;;1.10;;
41289;SDS011;36117;46.680;11.154;2022-07-29T11:19:50;1.45;;;1.13;;
41289;SDS011;36117;46.680;11.154;2022-07-29T11:22:34;3.63;;;1.90;;
41289;SDS011;36117;46.680;11.154;2022-07-29T11:25:15;2.28;;;1.40;;
41289;SDS011;36117;46.680;11.154;2022-07-29T11:27:42;3.08;;;1.73;;
41289;SDS011;36117;46.680;11.154;2022-07-29T11:30:09;2.75;;;1.13;;
41289;SDS011;36117;46.680;11.154;2022-07-29T11:32:37;1.90;;;1.20;;
41289;SDS011;36117;46.680;11.154;2022-07-29T11:35:12;2.45;;;1.30;;
41289;SDS011;36117;46.680;11.154;2022-07-29T11:37:38;5.50;;;1.38;;
41289;SDS011;36117;46.680;11.154;2022-07-29T11:47:35;1.73;;;1.20;;
41289;SDS011;36117;46.680;11.154;2022-07-29T11:50:04;2.08;;;1.20;;
41289;SDS011;36117;46.680;11.154;2022-07-29T11:52:32;7.00;;;1.30;;
41289;SDS011;36117;46.680;11.154;2022-07-29T11:55:03;3.53;;;1.40;;
41289;SDS011;36117;46.680;11.154;2022-07-29T11:57:30;1.58;;;1.10;;
41289;SDS011;36117;46.680;11.154;2022-07-29T11:59:59;2.13;;;1.20;;
41289;SDS011;36117;46.680;11.154;2022-07-29T12:02:26;1.33;;;1.17;;
41289;SDS011;36117;46.680;11.154;2022-07-29T12:05:04;2.47;;;1.42;;
41289;SDS011;36117;46.680;11.154;2022-07-29T12:07:32;3.00;;;1.58;;
41289;SDS011;36117;46.680;11.154;2022-07-29T12:09:59;4.68;;;2.45;;
41289;SDS011;36117;46.680;11.154;2022-07-29T12:12:26;1.40;;;1.05;;
41289;SDS011;36117;46.680;11.154;2022-07-29T12:14:52;4.00;;;1.60;;
41289;SDS011;36117;46.680;11.154;2022-07-29T12:19:53;1.85;;;1.42;;
41289;SDS011;36117;46.680;11.154;2022-07-29T12:22:26;1.40;;;1.20;;
41289;SDS011;36117;46.680;11.154;2022-07-29T12:24:54;4.65;;;1.30;;
41289;SDS011;36117;46.680;11.154;2022-07-29T12:27:20;1.25;;;1.08;;
41289;SDS011;36117;46.680;11.154;2022-07-29T12:29:56;3.58;;;1.17;;
41289;SDS011;36117;46.680;11.154;2022-07-29T12:32:30;5.63;;;3.28;;
41289;SDS011;36117;46.680;11.154;2022-07-29T12:34:59;7.88;;;2.30;;
41289;SDS011;36117;46.680;11.154;2022-07-29T12:37:28;5.03;;;1.67;;
41289;SDS011;36117;46.680;11.154;2022-07-29T12:39:54;1.95;;;1.20;;
41289;SDS011;36117;46.680;11.154;2022-07-29T12:42:21;2.15;;;0.90;;
41289;SDS011;36117;46.680;11.154;2022-07-29T12:44:48;1.17;;;1.08;;
41289;SDS011;36117;46.680;11.154;2022-07-29T12:47:15;4.68;;;1.50;;
41289;SDS011;36117;46.680;11.154;2022-07-29T12:49:43;3.35;;;1.73;;
41289;SDS011;36117;46.680;11.154;2022-07-29T12:55:09;2.78;;;1.00;;
41289;SDS011;36117;46.680;11.154;2022-07-29T12:57:49;1.60;;;1.30;;
41289;SDS011;36117;46.680;11.154;2022-07-29T13:00:23;5.70;;;2.92;;
41289;SDS011;36117;46.680;11.154;2022-07-29T13:02:56;2.65;;;1.75;;
41289;SDS011;36117;46.680;11.154;2022-07-29T13:05:37;1.55;;;1.20;;
41289;SDS011;36117;46.680;11.154;2022-07-29T13:08:11;1.92;;;1.50;;
41289;SDS011;36117;46.680;11.154;2022-07-29T13:10:41;3.38;;;1.08;;
41289;SDS011;36117;46.680;11.154;2022-07-29T13:13:11;2.80;;;1.55;;
41289;SDS011;36117;46.680;11.154;2022-07-29T13:15:39;1.15;;;1.05;;
41289;SDS011;36117;46.680;11.154;2022-07-29T13:20:56;4.63;;;2.60;;
41289;SDS011;36117;46.680;11.154;2022-07-29T13:23:35;2.78;;;1.85;;
41289;SDS011;36117;46.680;11.154;2022-07-29T13:26:07;3.05;;;1.48;;
41289;SDS011;36117;46.680;11.154;2022-07-29T13:28:34;2.10;;;1.33;;
41289;SDS011;36117;46.680;11.154;2022-07-29T13:31:01;2.08;;;1.58;;
41289;SDS011;36117;46.680;11.154;2022-07-29T13:33:27;4.82;;;2.65;;
41289;SDS011;36117;46.680;11.154;2022-07-29T13:35:55;3.42;;;1.65;;
41289;SDS011;36117;46.680;11.154;2022-07-29T13:38:21;5.32;;;3.28;;
41289;SDS011;36117;46.680;11.154;2022-07-29T13:40:48;5.65;;;1.92;;
41289;SDS011;36117;46.680;11.154;2022-07-29T13:43:14;5.00;;;2.85;;
41289;SDS011;36117;46.680;11.154;2022-07-29T13:45:40;4.55;;;1.40;;
41289;SDS011;36117;46.680;11.154;2022-07-29T13:48:06;3.40;;;1.67;;
41289;SDS011;36117;46.680;11.154;2022-07-29T13:50:32;5.50;;;1.80;;
41289;SDS011;36117;46.680;11.154;2022-07-29T13:52:58;5.35;;;1.77;;
41289;SDS011;36117;46.680;11.154;2022-07-29T13:55:24;6.13;;;1.98;;
41289;SDS011;36117;46.680;11.154;2022-07-29T13:57:50;9.80;;;5.55;;
41289;SDS011;36117;46.680;11.154;2022-07-29T14:00:16;9.40;;;4.85;;
41289;SDS011;36117;46.680;11.154;2022-07-29T14:02:43;4.38;;;2.00;;
41289;SDS011;36117;46.680;11.154;2022-07-29T14:05:09;4.82;;;2.08;;
41289;SDS011;36117;46.680;11.154;2022-07-29T14:07:36;3.63;;;2.15;;
41289;SDS011;36117;46.680;11.154;2022-07-29T14:10:03;7.95;;;3.08;;
41289;SDS011;36117;46.680;11.154;2022-07-29T14:12:30;3.85;;;2.13;;
41289;SDS011;36117;46.680;11.154;2022-07-29T14:14:55;5.47;;;2.08;;
41289;SDS011;36117;46.680;11.154;2022-07-29T14:17:21;9.20;;;1.45;;
41289;SDS011;36117;46.680;11.154;2022-07-29T14:19:48;2.15;;;1.17;;
41289;SDS011;36117;46.680;11.154;2022-07-29T14:22:14;3.45;;;1.25;;
41289;SDS011;36117;46.680;11.154;2022-07-29T14:24:40;2.83;;;1.35;;
41289;SDS011;36117;46.680;11.154;2022-07-29T14:27:06;1.73;;;1.35;;
41289;SDS011;36117;46.680;11.154;2022-07-29T14:29:32;2.10;;;1.52;;
41289;SDS011;36117;46.680;11.154;2022-07-29T14:31:58;3.25;;;1.60;;
41289;SDS011;36117;46.680;11.154;2022-07-29T14:34:24;3.70;;;1.83;;
41289;SDS011;36117;46.680;11.154;2022-07-29T14:36:50;1.77;;;1.50;;
41289;SDS011;36117;46.680;11.154;2022-07-29T14:39:16;2.65;;;1.40;;
41289;SDS011;36117;46.680;11.154;2022-07-29T14:41:42;5.78;;;1.60;;
41289;SDS011;36117;46.680;11.154;2022-07-29T14:44:08;3.67;;;2.20;;
41289;SDS011;36117;46.680;11.154;2022-07-29T14:46:34;2.63;;;1.52;;
41289;SDS011;36117;46.680;11.154;2022-07-29T14:49:00;4.55;;;1.50;;
41289;SDS011;36117;46.680;11.154;2022-07-29T14:51:26;2.63;;;1.30;;
41289;SDS011;36117;46.680;11.154;2022-07-29T14:53:52;2.63;;;1.80;;
41289;SDS011;36117;46.680;11.154;2022-07-29T14:56:18;2.08;;;1.13;;
41289;SDS011;36117;46.680;11.154;2022-07-29T14:58:43;11.48;;;3.85;;
41289;SDS011;36117;46.680;11.154;2022-07-29T15:01:09;2.33;;;1.50;;
41289;SDS011;36117;46.680;11.154;2022-07-29T15:03:35;2.65;;;1.20;;
41289;SDS011;36117;46.680;11.154;2022-07-29T15:06:01;1.58;;;1.15;;
41289;SDS011;36117;46.680;11.154;2022-07-29T15:08:27;1.42;;;1.13;;
41289;SDS011;36117;46.680;11.154;2022-07-29T15:10:54;1.60;;;1.50;;
41289;SDS011;36117;46.680;11.154;2022-07-29T15:13:22;3.85;;;1.42;;
41289;SDS011;36117;46.680;11.154;2022-07-29T15:15:48;3.35;;;1.50;;
41289;SDS011;36117;46.680;11.154;2022-07-29T15:18:14;1.95;;;1.42;;
41289;SDS011;36117;46.680;11.154;2022-07-29T15:20:40;2.72;;;1.40;;
41289;SDS011;36117;46.680;11.154;2022-07-29T15:23:06;2.47;;;1.55;;
41289;SDS011;36117;46.680;11.154;2022-07-29T15:25:34;5.20;;;2.83;;
41289;SDS011;36117;46.680;11.154;2022-07-29T15:28:01;2.53;;;1.30;;